Time;durP1;ratioP1;P1;durP2;ratioP2;P2;SDS_P1;SDS_P2;PMS_P1;PMS_P2;Temp;Humidity;BMP_temperature;BMP_pressure;BME280_temperature;BME280_humidity;BME280_pressure;Samples;Min_cycle;Max_cycle;Signal;HPM_P1;HPM_P2
2022/09/05 00:02:01;;;;;;;68.37;8.90;;;20.70;99.90;;;;;;5032774;28;20420;-83
2022/09/05 00:04:51;;;;;;;67.77;9.53;;;20.70;99.90;;;;;;5031900;28;20383;-83
2022/09/05 00:07:20;;;;;;;69.27;8.60;;;20.70;99.90;;;;;;5028676;28;20518;-82
2022/09/05 00:09:48;;;;;;;68.97;9.30;;;20.70;99.90;;;;;;5024728;28;20408;-83
2022/09/05 00:12:15;;;;;;;70.17;9.10;;;20.70;99.90;;;;;;5027192;28;20406;-82
2022/09/05 00:15:01;;;;;;;68.57;9.97;;;20.70;99.90;;;;;;5025610;28;20404;-82
2022/09/05 00:17:35;;;;;;;68.60;8.90;;;20.70;99.90;;;;;;5023287;28;20512;-82
2022/09/05 00:20:10;;;;;;;69.20;8.30;;;20.70;99.90;;;;;;5023942;28;20381;-82
2022/09/05 00:22:48;;;;;;;68.77;9.27;;;20.60;99.90;;;;;;5022870;28;20466;-82
2022/09/05 00:25:19;;;;;;;68.80;10.50;;;20.60;99.90;;;;;;5023073;28;20837;-82
2022/09/05 00:28:12;;;;;;;68.77;12.30;;;20.50;99.90;;;;;;5021845;28;20440;-82
2022/09/05 00:31:06;;;;;;;68.67;11.30;;;20.50;99.90;;;;;;5027408;28;20382;-83
2022/09/05 00:34:01;;;;;;;68.67;11.93;;;20.50;99.90;;;;;;5026616;28;20417;-82
2022/09/05 00:36:52;;;;;;;67.50;9.93;;;20.50;99.90;;;;;;5024440;28;20545;-82
2022/09/05 00:39:26;;;;;;;68.67;13.67;;;20.50;99.90;;;;;;5026937;28;20417;-83
2022/09/05 00:41:57;;;;;;;69.30;12.67;;;20.40;99.90;;;;;;5027809;28;20389;-82
2022/09/05 00:44:28;;;;;;;67.37;11.47;;;20.40;99.90;;;;;;5027642;28;20388;-83
2022/09/05 00:47:25;;;;;;;68.70;10.47;;;20.40;99.90;;;;;;5027463;28;20442;-81
2022/09/05 00:50:13;;;;;;;68.07;8.20;;;20.50;99.90;;;;;;5026756;28;20394;-82
2022/09/05 00:52:47;;;;;;;69.17;8.87;;;20.40;99.90;;;;;;5027027;28;20444;-82
2022/09/05 00:55:46;;;;;;;68.70;9.50;;;20.40;99.90;;;;;;5027494;28;20393;-82
2022/09/05 00:58:39;;;;;;;67.40;8.77;;;20.40;99.90;;;;;;5025815;28;20820;-81
2022/09/05 01:01:28;;;;;;;66.20;7.60;;;20.30;99.90;;;;;;5026458;28;20438;-82
2022/09/05 01:04:10;;;;;;;67.37;8.30;;;20.30;99.90;;;;;;5025880;28;20780;-82
2022/09/05 01:07:23;;;;;;;67.40;7.97;;;20.20;99.90;;;;;;5026875;28;20427;-83
2022/09/05 01:10:11;;;;;;;67.07;8.70;;;20.20;99.90;;;;;;4985212;28;20411;-82
2022/09/05 01:13:04;;;;;;;68.30;8.60;;;20.20;99.90;;;;;;4986920;28;20882;-83
2022/09/05 01:15:55;;;;;;;69.27;11.20;;;20.20;99.90;;;;;;4990513;28;20413;-82
2022/09/05 01:18:45;;;;;;;68.27;10.50;;;20.10;99.90;;;;;;5025481;28;20434;-82
2022/09/05 01:21:56;;;;;;;67.63;10.90;;;20.10;99.90;;;;;;5026186;28;20902;-81
2022/09/05 01:24:36;;;;;;;69.70;9.07;;;20.10;99.90;;;;;;5016118;28;20415;-82
2022/09/05 01:27:39;;;;;;;67.40;9.50;;;20.10;99.90;;;;;;5025611;28;20492;-82
2022/09/05 01:30:27;;;;;;;67.30;8.47;;;20.00;99.90;;;;;;5024698;28;20406;-83
2022/09/05 01:33:21;;;;;;;67.40;7.97;;;20.00;99.90;;;;;;5025987;28;20383;-82
2022/09/05 01:36:12;;;;;;;68.47;9.63;;;20.00;99.90;;;;;;5031188;28;20436;-83
2022/09/05 01:39:24;;;;;;;67.80;7.97;;;19.90;99.90;;;;;;5033628;28;20461;-83
2022/09/05 01:42:19;;;;;;;68.07;8.70;;;19.80;99.90;;;;;;5030439;28;20618;-84
2022/09/05 01:44:54;;;;;;;67.87;8.37;;;19.80;99.90;;;;;;5034426;28;20382;-84
2022/09/05 01:47:48;;;;;;;68.00;8.67;;;19.80;99.90;;;;;;5033635;28;20441;-83
2022/09/05 01:50:39;;;;;;;69.30;8.97;;;19.70;99.90;;;;;;5033511;28;20462;-84
2022/09/05 01:53:30;;;;;;;69.87;7.77;;;19.70;99.90;;;;;;5034549;28;20456;-84
2022/09/05 01:56:23;;;;;;;69.97;8.90;;;19.70;99.90;;;;;;5034481;28;20437;-84
2022/09/05 01:59:16;;;;;;;68.27;9.00;;;19.60;99.90;;;;;;5026614;28;20395;-83
2022/09/05 02:01:45;;;;;;;70.37;9.63;;;19.60;99.90;;;;;;5026460;28;20378;-81
2022/09/05 02:04:25;;;;;;;69.67;8.87;;;19.60;99.90;;;;;;5026775;28;20490;-82
2022/09/05 02:07:19;;;;;;;68.20;8.80;;;19.50;99.90;;;;;;5025088;28;20483;-82
2022/09/05 02:10:10;;;;;;;69.20;8.67;;;19.50;99.90;;;;;;5024442;28;20423;-82
2022/09/05 02:12:53;;;;;;;68.00;9.17;;;19.50;99.90;;;;;;5025042;28;20469;-82
2022/09/05 02:15:24;;;;;;;67.60;8.50;;;19.40;99.90;;;;;;5024792;28;20398;-82
2022/09/05 02:17:57;;;;;;;70.17;10.10;;;19.40;99.90;;;;;;5024519;28;20504;-82
2022/09/05 02:20:39;;;;;;;69.77;9.60;;;19.40;99.90;;;;;;5024659;28;20408;-82
2022/09/05 02:23:14;;;;;;;72.53;10.20;;;19.40;99.90;;;;;;5023208;28;20484;-82
2022/09/05 02:26:02;;;;;;;71.70;10.90;;;19.30;99.90;;;;;;5023122;28;20412;-82
2022/09/05 02:28:58;;;;;;;68.90;12.00;;;19.20;99.90;;;;;;5024036;28;20479;-82
2022/09/05 02:31:45;;;;;;;71.70;8.90;;;19.30;99.90;;;;;;5024726;28;20390;-82
2022/09/05 02:34:33;;;;;;;70.40;11.40;;;19.20;99.90;;;;;;5023775;28;20425;-82
2022/09/05 02:37:22;;;;;;;68.87;10.63;;;19.20;99.90;;;;;;5023863;28;20488;-82
2022/09/05 02:39:58;;;;;;;69.60;12.60;;;19.20;99.90;;;;;;5024764;28;20504;-83
2022/09/05 02:42:46;;;;;;;71.80;12.37;;;19.10;99.90;;;;;;5024729;28;20392;-82
2022/09/05 02:45:33;;;;;;;69.67;11.70;;;19.20;99.90;;;;;;5024740;28;20747;-82
2022/09/05 02:48:02;;;;;;;70.60;13.97;;;19.20;99.90;;;;;;5024273;28;20444;-82
2022/09/05 02:50:52;;;;;;;72.23;12.67;;;19.10;99.90;;;;;;5025531;28;20451;-82
2022/09/05 02:53:19;;;;;;;69.30;12.60;;;19.10;99.90;;;;;;5023794;28;20431;-82
2022/09/05 02:55:51;;;;;;;69.90;12.13;;;19.10;99.90;;;;;;5024793;28;20431;-82
2022/09/05 02:58:47;;;;;;;69.90;12.37;;;19.10;99.90;;;;;;5023989;28;20427;-82
2022/09/05 03:01:15;;;;;;;69.77;12.90;;;19.10;99.90;;;;;;5024128;28;20871;-82
2022/09/05 03:04:19;;;;;;;70.30;14.33;;;19.00;99.90;;;;;;5024021;28;20405;-81
2022/09/05 03:07:05;;;;;;;70.73;15.73;;;19.00;99.90;;;;;;5015048;28;20447;-82
2022/09/05 03:09:50;;;;;;;70.80;14.77;;;18.90;99.90;;;;;;5024063;28;20420;-82
2022/09/05 03:13:00;;;;;;;73.83;16.77;;;18.90;99.90;;;;;;5024318;28;20413;-82
2022/09/05 03:16:03;;;;;;;70.77;16.73;;;18.90;99.90;;;;;;5024244;28;20419;-83
2022/09/05 03:19:06;;;;;;;72.70;15.80;;;18.90;99.90;;;;;;5025172;28;20467;-82
2022/09/05 03:21:53;;;;;;;70.40;14.33;;;18.90;99.90;;;;;;5023170;28;20539;-82
2022/09/05 03:24:37;;;;;;;73.87;16.43;;;18.90;99.90;;;;;;5025097;28;20520;-82
2022/09/05 03:27:24;;;;;;;70.30;16.53;;;18.80;99.90;;;;;;5024806;28;20417;-82
2022/09/05 03:30:14;;;;;;;70.30;16.70;;;18.80;99.90;;;;;;5024210;28;20405;-82
2022/09/05 03:33:14;;;;;;;73.27;17.23;;;18.80;99.90;;;;;;5021980;28;20441;-82
2022/09/05 03:35:54;;;;;;;70.87;18.07;;;18.80;99.90;;;;;;5022820;28;20378;-82
2022/09/05 03:39:02;;;;;;;69.03;14.17;;;18.80;99.90;;;;;;5023639;28;20511;-82
2022/09/05 03:41:36;;;;;;;70.00;16.27;;;18.80;99.90;;;;;;4983058;28;20418;-82
2022/09/05 03:44:39;;;;;;;69.20;15.30;;;18.80;99.90;;;;;;4983558;28;20387;-81
2022/09/05 03:47:24;;;;;;;70.37;16.67;;;18.80;99.90;;;;;;5014682;28;20436;-82
2022/09/05 03:49:58;;;;;;;71.97;16.00;;;18.80;99.90;;;;;;5023418;28;20409;-81
2022/09/05 03:52:50;;;;;;;70.30;16.87;;;18.80;99.90;;;;;;5022182;28;20416;-82
2022/09/05 03:55:53;;;;;;;71.60;15.53;;;18.70;99.90;;;;;;5023933;28;20396;-83
2022/09/05 03:58:27;;;;;;;69.87;15.70;;;18.60;99.90;;;;;;5015234;28;20441;-83
2022/09/05 04:01:16;;;;;;;69.77;17.27;;;18.60;99.90;;;;;;5022610;28;20392;-82
2022/09/05 04:03:46;;;;;;;71.80;16.63;;;18.60;99.90;;;;;;5022860;28;20420;-83
2022/09/05 04:06:26;;;;;;;69.80;15.40;;;18.60;99.90;;;;;;5023121;28;20884;-82
2022/09/05 04:09:10;;;;;;;70.03;14.60;;;18.60;99.90;;;;;;5020869;28;20413;-82
2022/09/05 04:11:44;;;;;;;70.47;14.97;;;18.60;99.90;;;;;;5023176;28;20381;-82
2022/09/05 04:14:13;;;;;;;70.87;16.57;;;18.50;99.90;;;;;;5022673;28;20468;-83
2022/09/05 04:16:48;;;;;;;73.47;13.90;;;18.40;99.90;;;;;;5023206;28;20463;-83
2022/09/05 04:19:54;;;;;;;70.90;15.47;;;18.30;99.90;;;;;;5020586;28;20503;-82
2022/09/05 04:22:53;;;;;;;69.33;15.13;;;18.40;99.90;;;;;;4981284;28;20398;-81
2022/09/05 04:25:28;;;;;;;70.40;15.37;;;18.30;99.90;;;;;;4999952;28;20931;-82
2022/09/05 04:28:31;;;;;;;71.30;15.67;;;18.30;99.90;;;;;;5022281;28;20427;-81
2022/09/05 04:31:02;;;;;;;69.77;14.70;;;18.30;99.90;;;;;;5022744;28;20428;-81
2022/09/05 04:33:54;;;;;;;72.80;16.43;;;18.30;99.90;;;;;;5022443;28;20389;-81
2022/09/05 04:36:25;;;;;;;72.00;12.37;;;18.20;99.90;;;;;;5021522;28;20586;-82
2022/09/05 04:39:17;;;;;;;70.57;14.07;;;18.20;99.90;;;;;;5021817;28;20435;-81
2022/09/05 04:41:52;;;;;;;67.70;10.90;;;18.10;99.90;;;;;;5022113;28;20388;-82
2022/09/05 04:44:27;;;;;;;71.13;10.80;;;18.00;99.90;;;;;;5021979;28;20384;-82
2022/09/05 04:47:02;;;;;;;70.10;10.37;;;18.00;99.90;;;;;;5024430;28;20927;-82
2022/09/05 04:49:39;;;;;;;73.93;10.40;;;18.10;99.90;;;;;;5022903;28;20405;-83
2022/09/05 04:52:48;;;;;;;67.97;9.93;;;18.10;99.90;;;;;;5025279;28;20389;-82
2022/09/05 04:55:20;;;;;;;68.87;10.20;;;18.20;99.90;;;;;;5023205;28;20488;-81
2022/09/05 04:58:13;;;;;;;70.60;11.37;;;18.20;99.90;;;;;;5022473;28;20456;-82
2022/09/05 05:00:47;;;;;;;72.83;12.00;;;18.30;99.90;;;;;;5023834;28;20464;-82
2022/09/05 05:03:22;;;;;;;70.27;12.23;;;18.40;99.90;;;;;;5023707;28;20381;-82
2022/09/05 05:05:48;;;;;;;69.77;12.23;;;18.50;99.90;;;;;;5023787;28;20416;-83
2022/09/05 05:08:34;;;;;;;68.17;10.97;;;18.50;99.90;;;;;;5023195;28;20421;-83
2022/09/05 05:11:12;;;;;;;70.13;11.23;;;18.40;99.90;;;;;;5023587;28;20166;-83
2022/09/05 05:14:19;;;;;;;71.37;9.60;;;18.20;99.90;;;;;;5023778;28;20484;-82
2022/09/05 05:16:53;;;;;;;73.37;10.00;;;18.10;99.90;;;;;;4968785;28;20462;-82
2022/09/05 05:19:22;;;;;;;73.93;10.10;;;18.20;99.90;;;;;;5023002;28;20405;-81
2022/09/05 05:21:55;;;;;;;69.77;9.00;;;18.30;99.90;;;;;;5027033;28;20397;-82
2022/09/05 05:24:33;;;;;;;71.60;11.40;;;18.30;99.90;;;;;;5026734;28;20378;-82
2022/09/05 05:27:22;;;;;;;69.40;10.23;;;18.40;99.90;;;;;;5026873;28;20422;-82
2022/09/05 05:29:56;;;;;;;74.70;10.63;;;18.40;99.90;;;;;;5026457;28;20408;-81
2022/09/05 05:32:33;;;;;;;69.60;10.40;;;18.40;99.90;;;;;;5026827;28;20389;-81
2022/09/05 05:35:22;;;;;;;69.70;9.40;;;18.30;99.90;;;;;;5026438;28;20389;-82
2022/09/05 05:38:09;;;;;;;69.37;9.77;;;18.40;99.90;;;;;;5026327;28;20460;-81
2022/09/05 05:40:37;;;;;;;74.40;9.33;;;18.50;99.90;;;;;;5025503;28;20389;-82
2022/09/05 05:43:14;;;;;;;69.37;10.93;;;18.50;99.90;;;;;;5025871;28;20400;-82
2022/09/05 05:45:40;;;;;;;70.67;9.70;;;18.60;99.90;;;;;;5025131;28;20405;-81
2022/09/05 05:48:36;;;;;;;70.93;11.00;;;18.60;99.90;;;;;;5025652;28;20456;-82
2022/09/05 05:51:26;;;;;;;72.00;9.93;;;18.70;99.90;;;;;;5021448;28;20756;-82
2022/09/05 05:53:59;;;;;;;70.47;10.20;;;18.70;99.90;;;;;;5024321;28;20389;-82
2022/09/05 05:56:44;;;;;;;70.63;9.67;;;18.60;99.90;;;;;;5024691;28;20864;-83
2022/09/05 05:59:17;;;;;;;70.30;10.30;;;18.60;99.90;;;;;;5025592;28;20870;-81
2022/09/05 06:02:18;;;;;;;71.20;9.67;;;18.60;99.90;;;;;;5025377;28;20385;-83
2022/09/05 06:05:31;;;;;;;78.30;9.30;;;18.70;99.90;;;;;;5011457;28;20467;-83
2022/09/05 06:08:21;;;;;;;71.37;10.00;;;18.60;99.90;;;;;;4979034;28;20436;-82
2022/09/05 06:11:07;;;;;;;67.90;9.30;;;18.60;99.90;;;;;;5025656;28;20798;-82
2022/09/05 06:13:52;;;;;;;69.50;9.90;;;18.50;99.90;;;;;;5024684;28;20405;-81
2022/09/05 06:16:36;;;;;;;67.67;10.30;;;18.50;99.90;;;;;;5023095;28;20459;-81
2022/09/05 06:19:13;;;;;;;69.67;11.47;;;18.50;99.90;;;;;;5024460;28;20905;-82
2022/09/05 06:22:15;;;;;;;76.40;13.97;;;18.50;99.90;;;;;;5022854;28;20406;-83
2022/09/05 06:25:18;;;;;;;69.43;13.13;;;18.50;99.90;;;;;;5020791;28;20409;-82
2022/09/05 06:27:50;;;;;;;71.00;10.70;;;18.50;99.90;;;;;;5026726;28;20453;-83
2022/09/05 06:30:19;;;;;;;69.00;10.23;;;18.60;99.90;;;;;;5025484;28;20392;-83
2022/09/05 06:33:10;;;;;;;72.53;9.53;;;18.70;99.90;;;;;;5023110;28;20484;-82
2022/09/05 06:35:51;;;;;;;67.43;9.50;;;18.80;99.90;;;;;;5022927;28;20955;-82
2022/09/05 06:38:31;;;;;;;66.70;9.00;;;18.90;99.90;;;;;;5023998;28;20445;-82
2022/09/05 06:41:08;;;;;;;70.77;10.87;;;18.90;99.90;;;;;;5024547;28;20393;-82
2022/09/05 06:43:53;;;;;;;74.50;11.87;;;18.90;99.90;;;;;;5025738;28;20381;-82
2022/09/05 06:46:34;;;;;;;75.93;12.90;;;19.00;99.90;;;;;;5023646;28;20401;-81
2022/09/05 06:49:16;;;;;;;70.67;11.10;;;19.00;99.90;;;;;;5024643;28;20390;-81
2022/09/05 06:51:52;;;;;;;69.87;9.27;;;19.10;99.90;;;;;;5022366;28;20406;-81
2022/09/05 06:54:43;;;;;;;67.60;9.87;;;19.10;99.90;;;;;;5024188;28;20477;-82
2022/09/05 06:57:43;;;;;;;69.63;8.00;;;19.20;99.90;;;;;;5024051;28;20457;-82
2022/09/05 07:00:31;;;;;;;69.50;10.07;;;19.30;99.90;;;;;;5022656;28;20412;-82
2022/09/05 07:03:09;;;;;;;72.97;10.20;;;19.30;99.90;;;;;;5022750;28;20404;-82
2022/09/05 07:05:46;;;;;;;70.37;8.90;;;19.40;99.90;;;;;;5023219;28;20397;-82
2022/09/05 07:08:29;;;;;;;69.40;11.00;;;19.40;99.90;;;;;;5023369;28;20421;-82
2022/09/05 07:11:29;;;;;;;67.87;9.47;;;19.50;99.90;;;;;;5022319;28;20386;-82
2022/09/05 07:14:01;;;;;;;68.67;8.80;;;19.50;99.90;;;;;;5020228;28;20474;-82
2022/09/05 07:17:11;;;;;;;70.07;8.70;;;19.50;99.90;;;;;;5021170;28;20450;-83
2022/09/05 07:19:57;;;;;;;67.97;7.53;;;19.60;99.90;;;;;;5019013;28;20413;-82
2022/09/05 07:22:33;;;;;;;67.67;9.13;;;19.70;99.90;;;;;;5025570;28;20873;-81
2022/09/05 07:25:12;;;;;;;68.17;9.13;;;19.70;99.90;;;;;;5022775;28;20406;-82
2022/09/05 07:27:52;;;;;;;67.70;8.70;;;19.70;99.90;;;;;;5024021;28;20487;-82
2022/09/05 07:30:18;;;;;;;74.20;9.13;;;19.80;99.90;;;;;;5024513;28;20859;-82
2022/09/05 07:32:49;;;;;;;67.47;7.60;;;19.90;99.90;;;;;;5023638;28;20414;-82
2022/09/05 07:35:23;;;;;;;69.77;7.50;;;20.00;99.90;;;;;;5024964;28;20425;-82
2022/09/05 07:38:05;;;;;;;69.83;9.20;;;20.00;99.90;;;;;;5022935;28;20821;-81
2022/09/05 07:40:38;;;;;;;67.70;7.03;;;20.10;99.90;;;;;;5025951;28;20401;-84
2022/09/05 07:43:06;;;;;;;68.77;7.53;;;20.20;99.90;;;;;;5029916;28;20381;-83
2022/09/05 07:45:37;;;;;;;68.00;6.77;;;20.30;99.90;;;;;;5027668;28;20407;-83
2022/09/05 07:48:12;;;;;;;68.37;6.80;;;20.30;99.90;;;;;;5030257;28;20579;-83
2022/09/05 07:50:56;;;;;;;68.10;5.80;;;20.30;99.90;;;;;;5028780;28;20389;-83
2022/09/05 07:53:23;;;;;;;68.57;5.80;;;20.40;99.90;;;;;;5023294;28;20837;-83
2022/09/05 07:56:02;;;;;;;68.40;5.60;;;20.50;99.90;;;;;;5024563;28;20896;-83
2022/09/05 07:58:42;;;;;;;67.93;6.70;;;20.60;99.90;;;;;;5022753;28;20430;-83
2022/09/05 08:01:12;;;;;;;70.27;5.43;;;20.70;99.90;;;;;;5026060;28;20417;-83
2022/09/05 08:03:39;;;;;;;66.37;6.00;;;20.90;99.90;;;;;;5024994;28;21023;-83
2022/09/05 08:06:11;;;;;;;68.87;7.57;;;21.00;99.90;;;;;;5024611;28;20899;-83
2022/09/05 08:09:05;;;;;;;67.67;5.97;;;21.10;99.90;;;;;;5025923;28;20522;-82
2022/09/05 08:11:33;;;;;;;67.70;6.20;;;21.10;99.90;;;;;;5024404;28;20394;-83
2022/09/05 08:14:18;;;;;;;66.30;5.50;;;21.10;99.90;;;;;;5027288;28;20473;-83
2022/09/05 08:16:44;;;;;;;65.67;5.30;;;21.30;98.50;;;;;;5021138;28;20454;-83
2022/09/05 08:19:31;;;;;;;65.60;4.50;;;21.50;94.80;;;;;;5019861;28;20422;-81
2022/09/05 08:21:59;;;;;;;68.50;4.60;;;21.60;89.50;;;;;;5017737;28;20489;-81
2022/09/05 08:24:40;;;;;;;65.50;4.60;;;21.70;92.60;;;;;;5017302;28;20864;-81
2022/09/05 08:27:18;;;;;;;65.93;4.13;;;21.70;91.40;;;;;;5013783;28;20447;-81
2022/09/05 08:30:00;;;;;;;66.20;4.20;;;21.80;90.80;;;;;;5019004;28;20418;-81
2022/09/05 08:32:39;;;;;;;64.97;4.17;;;21.90;74.60;;;;;;5016475;28;20427;-81
2022/09/05 08:35:12;;;;;;;65.80;4.03;;;22.10;71.10;;;;;;5017098;28;20409;-81
2022/09/05 08:37:41;;;;;;;77.20;5.03;;;22.20;67.40;;;;;;5019586;28;20457;-81
2022/09/05 08:40:34;;;;;;;66.60;4.33;;;22.30;75.00;;;;;;5019944;28;20431;-81
2022/09/05 08:43:24;;;;;;;73.27;4.47;;;22.50;71.10;;;;;;5020800;28;20821;-82
2022/09/05 08:46:05;;;;;;;68.70;5.30;;;22.50;72.50;;;;;;5020611;28;20440;-82
2022/09/05 08:48:46;;;;;;;66.73;4.37;;;22.60;66.70;;;;;;5019658;28;20804;-82
2022/09/05 08:51:39;;;;;;;72.00;5.83;;;22.60;62.80;;;;;;5023507;28;20916;-82
2022/09/05 08:54:29;;;;;;;66.87;5.67;;;22.70;58.50;;;;;;5023071;28;20416;-82
2022/09/05 08:57:32;;;;;;;70.73;5.57;;;22.90;54.40;;;;;;5022973;28;20539;-82
2022/09/05 09:00:06;;;;;;;66.90;6.40;;;23.10;49.20;;;;;;5002351;28;20475;-82
2022/09/05 09:03:03;;;;;;;67.97;6.93;;;23.20;46.10;;;;;;5023260;28;20419;-83
2022/09/05 09:05:37;;;;;;;67.23;6.93;;;23.40;35.40;;;;;;5025843;28;20381;-82
2022/09/05 09:08:12;;;;;;;66.97;6.70;;;23.40;31.30;;;;;;5023438;28;20436;-82
2022/09/05 09:11:11;;;;;;;69.07;7.50;;;23.60;29.20;;;;;;5023570;28;20420;-82
2022/09/05 09:14:13;;;;;;;69.07;7.37;;;23.70;30.10;;;;;;5025157;28;20393;-83
2022/09/05 09:16:42;;;;;;;68.20;7.00;;;23.80;23.20;;;;;;5021988;28;20467;-82
2022/09/05 09:19:10;;;;;;;67.27;5.70;;;23.90;19.80;;;;;;5022755;28;20401;-82
2022/09/05 09:21:52;;;;;;;68.33;5.73;;;24.00;17.90;;;;;;5023119;28;20459;-83
2022/09/05 09:24:43;;;;;;;70.23;3.70;;;24.00;12.80;;;;;;5022724;28;20432;-83
2022/09/05 09:27:32;;;;;;;69.20;5.80;;;24.30;1.00;;;;;;5019758;28;20444;-82
2022/09/05 09:30:03;;;;;;;69.67;5.10;;;24.50;1.00;;;;;;5022864;28;20405;-83
2022/09/05 09:32:36;;;;;;;67.07;3.73;;;24.60;1.00;;;;;;5022907;28;20409;-83
2022/09/05 09:35:12;;;;;;;66.73;3.40;;;24.70;1.00;;;;;;5023513;28;20400;-82
2022/09/05 09:37:56;;;;;;;66.57;3.47;;;24.80;1.00;;;;;;5023554;28;20449;-83
2022/09/05 09:40:42;;;;;;;68.47;2.67;;;24.80;1.00;;;;;;5023083;28;20443;-82
2022/09/05 09:43:26;;;;;;;66.57;2.97;;;24.80;1.00;;;;;;5023818;28;20409;-83
2022/09/05 09:45:55;;;;;;;69.40;3.20;;;24.90;1.00;;;;;;5023822;28;20775;-82
2022/09/05 09:49:12;;;;;;;67.50;2.80;;;25.10;1.00;;;;;;5023697;28;20417;-83
2022/09/05 09:51:48;;;;;;;68.50;3.00;;;25.20;1.00;;;;;;5001004;28;20406;-82
2022/09/05 09:54:32;;;;;;;67.30;2.93;;;25.30;1.00;;;;;;5021977;28;20378;-83
2022/09/05 09:57:30;;;;;;;66.37;2.90;;;25.40;1.00;;;;;;5023836;28;20461;-82
2022/09/05 10:00:30;;;;;;;69.43;3.23;;;25.60;1.00;;;;;;5022247;28;20379;-83
2022/09/05 10:03:21;;;;;;;66.57;2.90;;;25.90;1.00;;;;;;5011926;28;20440;-83
2022/09/05 10:06:15;;;;;;;66.97;2.87;;;26.00;1.00;;;;;;5021667;28;20424;-84
2022/09/05 10:08:59;;;;;;;68.23;3.00;;;26.20;1.00;;;;;;5023895;28;20388;-83
2022/09/05 10:11:44;;;;;;;67.80;3.00;;;26.40;1.00;;;;;;5022201;28;20401;-82
2022/09/05 10:14:49;;;;;;;67.50;3.43;;;26.50;1.00;;;;;;5020886;28;20419;-82
2022/09/05 10:17:24;;;;;;;68.07;3.20;;;26.70;1.00;;;;;;5020375;28;20535;-82
2022/09/05 10:20:10;;;;;;;67.60;3.67;;;26.90;1.00;;;;;;5020382;28;20393;-82
2022/09/05 10:22:41;;;;;;;66.87;3.07;;;27.00;1.00;;;;;;5021722;28;20863;-82
2022/09/05 10:25:31;;;;;;;66.57;3.20;;;27.00;1.00;;;;;;5021000;28;20392;-82
2022/09/05 10:28:05;;;;;;;66.47;3.13;;;27.20;1.00;;;;;;5020219;28;20998;-82
2022/09/05 10:30:58;;;;;;;67.33;2.93;;;27.40;1.00;;;;;;5021681;28;20962;-82
2022/09/05 10:33:34;;;;;;;67.10;2.93;;;27.50;1.00;;;;;;5019615;28;20389;-82
2022/09/05 10:36:14;;;;;;;66.93;3.23;;;27.70;1.00;;;;;;5020625;28;20734;-82
2022/09/05 10:38:48;;;;;;;66.07;2.90;;;27.90;1.00;;;;;;5022703;28;20524;-82
2022/09/05 10:41:20;;;;;;;67.40;3.13;;;28.10;1.00;;;;;;5020947;28;20418;-83
2022/09/05 10:43:54;;;;;;;68.17;2.80;;;28.00;1.00;;;;;;5026457;28;20397;-83
2022/09/05 10:46:20;;;;;;;67.47;2.87;;;28.20;1.00;;;;;;5023044;28;20393;-83
2022/09/05 10:48:51;;;;;;;69.70;3.23;;;28.50;1.00;;;;;;5021571;28;20413;-82
2022/09/05 10:51:20;;;;;;;67.10;2.20;;;28.50;1.00;;;;;;5028256;28;20161;-84
2022/09/05 10:54:12;;;;;;;66.73;3.30;;;28.60;1.00;;;;;;5024641;28;20507;-83
2022/09/05 10:56:45;;;;;;;65.50;2.40;;;28.70;1.00;;;;;;5023054;28;20467;-83
2022/09/05 10:59:28;;;;;;;66.67;3.10;;;28.70;1.00;;;;;;5022356;28;20454;-82
2022/09/05 11:02:05;;;;;;;67.37;3.27;;;28.80;1.00;;;;;;5019627;28;20404;-83
2022/09/05 11:04:47;;;;;;;66.20;3.23;;;29.00;1.00;;;;;;5019288;28;20388;-83
2022/09/05 11:07:16;;;;;;;66.10;3.10;;;29.20;1.00;;;;;;5018984;28;20941;-83
2022/09/05 11:10:14;;;;;;;66.20;2.50;;;29.20;1.00;;;;;;5020326;28;20420;-83
2022/09/05 11:13:09;;;;;;;67.67;2.50;;;29.50;1.00;;;;;;5018805;28;20773;-83
2022/09/05 11:15:53;;;;;;;66.50;2.10;;;29.60;1.00;;;;;;5021256;28;20405;-83
2022/09/05 11:18:56;;;;;;;67.60;2.40;;;29.40;1.00;;;;;;5020254;28;20464;-84
2022/09/05 11:21:29;;;;;;;66.20;2.20;;;29.50;1.00;;;;;;5023153;28;20397;-83
2022/09/05 11:24:04;;;;;;;67.10;2.40;;;29.40;1.00;;;;;;5020786;28;20393;-82
2022/09/05 11:26:43;;;;;;;66.20;2.37;;;29.30;1.00;;;;;;5022372;28;20385;-83
2022/09/05 11:29:25;;;;;;;66.23;2.30;;;29.30;1.00;;;;;;5021399;28;20378;-83
2022/09/05 11:32:14;;;;;;;66.73;2.53;;;29.60;1.00;;;;;;5021239;28;20378;-83
2022/09/05 11:35:06;;;;;;;68.37;2.87;;;29.60;1.00;;;;;;4990691;28;20428;-83
2022/09/05 11:38:08;;;;;;;67.93;2.70;;;29.90;1.00;;;;;;5020971;28;20460;-84
2022/09/05 11:40:34;;;;;;;65.97;2.70;;;30.10;1.00;;;;;;5021287;28;20378;-83
2022/09/05 11:43:37;;;;;;;69.70;2.80;;;30.00;1.00;;;;;;5023432;28;20484;-84
2022/09/05 11:46:30;;;;;;;66.20;2.40;;;29.90;1.00;;;;;;5023827;28;20161;-84
2022/09/05 11:49:11;;;;;;;67.63;3.10;;;30.10;1.00;;;;;;5020857;28;20397;-84
2022/09/05 11:51:45;;;;;;;69.20;2.60;;;30.40;1.00;;;;;;5021102;28;20388;-83
2022/09/05 11:54:48;;;;;;;67.10;2.10;;;30.70;1.00;;;;;;5019638;28;20402;-83
2022/09/05 11:57:41;;;;;;;66.67;2.03;;;30.80;1.00;;;;;;5018754;28;20507;-84
2022/09/05 12:00:45;;;;;;;69.27;2.40;;;31.00;1.00;;;;;;5022285;28;20839;-83
2022/09/05 12:03:39;;;;;;;66.83;2.20;;;31.00;1.00;;;;;;4981280;28;20417;-83
2022/09/05 12:06:28;;;;;;;67.30;2.50;;;31.20;1.00;;;;;;5022334;28;20404;-84
2022/09/05 12:09:15;;;;;;;67.50;2.20;;;31.10;1.00;;;;;;5022680;28;20400;-84
2022/09/05 12:12:08;;;;;;;75.90;3.03;;;31.20;1.00;;;;;;5025523;28;20381;-83
2022/09/05 12:14:36;;;;;;;68.23;1.90;;;31.20;1.00;;;;;;5023516;28;20393;-83
2022/09/05 12:17:29;;;;;;;68.03;2.57;;;31.30;1.00;;;;;;5021473;28;20452;-84
2022/09/05 12:19:59;;;;;;;67.30;2.90;;;31.60;1.00;;;;;;5021727;28;20464;-84
2022/09/05 12:22:29;;;;;;;68.07;2.60;;;31.60;1.00;;;;;;5023631;28;20892;-84
2022/09/05 12:25:07;;;;;;;66.90;2.27;;;31.40;1.00;;;;;;5026417;28;20460;-84
2022/09/05 12:27:37;;;;;;;69.10;3.80;;;31.40;1.00;;;;;;5029272;28;20424;-84
2022/09/05 12:30:08;;;;;;;71.50;11.07;;;31.50;1.00;;;;;;5029034;28;20403;-84
2022/09/05 12:32:52;;;;;;;67.70;3.40;;;31.20;1.00;;;;;;5027743;28;20893;-84
2022/09/05 12:35:41;;;;;;;68.17;4.00;;;30.80;1.00;;;;;;5026551;28;20434;-84
2022/09/05 12:38:25;;;;;;;71.00;3.83;;;30.80;1.00;;;;;;5028125;28;20820;-83
2022/09/05 12:41:05;;;;;;;68.07;3.53;;;30.70;1.00;;;;;;5026381;28;20408;-83
2022/09/05 12:43:34;;;;;;;67.40;3.63;;;30.70;1.00;;;;;;5027593;28;20388;-83
2022/09/05 12:46:25;;;;;;;67.50;4.00;;;30.80;1.00;;;;;;5026925;28;20750;-83
2022/09/05 12:49:04;;;;;;;67.47;3.50;;;30.70;1.00;;;;;;5027253;28;20405;-83
2022/09/05 12:51:34;;;;;;;68.00;4.20;;;30.90;1.00;;;;;;5028471;28;20417;-83
2022/09/05 12:54:04;;;;;;;73.60;4.17;;;31.00;1.00;;;;;;5026156;28;20425;-83
2022/09/05 12:56:37;;;;;;;68.47;3.90;;;31.00;1.00;;;;;;5027656;28;20448;-83
2022/09/05 12:59:05;;;;;;;68.70;3.30;;;31.40;1.00;;;;;;5026183;28;20428;-83
2022/09/05 13:01:33;;;;;;;68.70;3.00;;;31.30;1.00;;;;;;5026885;28;20445;-83
2022/09/05 13:04:21;;;;;;;69.23;3.33;;;31.50;1.00;;;;;;5025328;28;20827;-84
2022/09/05 13:06:59;;;;;;;69.57;2.80;;;31.50;1.00;;;;;;5027872;28;20488;-84
2022/09/05 13:09:33;;;;;;;67.70;2.37;;;31.50;1.00;;;;;;5024947;28;20496;-84
2022/09/05 13:12:18;;;;;;;67.27;2.03;;;31.50;1.00;;;;;;5027913;28;20397;-84
2022/09/05 13:14:59;;;;;;;67.33;2.30;;;31.60;1.00;;;;;;5026780;28;20420;-84
2022/09/05 13:17:50;;;;;;;68.13;2.20;;;31.70;1.00;;;;;;5025322;28;20461;-84
2022/09/05 13:20:34;;;;;;;68.17;2.50;;;31.80;1.00;;;;;;5027252;28;20428;-85
2022/09/05 13:23:11;;;;;;;67.90;2.10;;;31.70;1.00;;;;;;5025403;28;20400;-83
2022/09/05 13:25:41;;;;;;;67.53;2.30;;;31.60;1.00;;;;;;5027920;28;20384;-83
2022/09/05 13:28:11;;;;;;;67.00;2.00;;;31.70;1.00;;;;;;5027471;28;20432;-84
2022/09/05 13:30:50;;;;;;;68.30;2.20;;;31.60;1.00;;;;;;5026000;28;20420;-83
2022/09/05 13:33:22;;;;;;;69.60;2.17;;;31.60;1.00;;;;;;5026689;28;20385;-84
2022/09/05 13:36:04;;;;;;;68.20;2.00;;;31.60;1.00;;;;;;5023069;28;20477;-84
2022/09/05 13:39:02;;;;;;;71.40;2.37;;;31.50;1.00;;;;;;5008777;28;20531;-83
2022/09/05 13:41:35;;;;;;;67.17;2.00;;;31.20;1.00;;;;;;5023432;28;20421;-84
2022/09/05 13:44:21;;;;;;;67.80;2.17;;;31.00;1.00;;;;;;5024853;28;20453;-84
2022/09/05 13:47:08;;;;;;;67.43;2.33;;;31.10;1.00;;;;;;5025135;28;20468;-84
2022/09/05 13:49:58;;;;;;;67.47;2.37;;;31.10;1.00;;;;;;5024514;28;20424;-83
2022/09/05 13:52:34;;;;;;;71.30;2.40;;;31.30;1.00;;;;;;5025327;28;20386;-84
2022/09/05 13:55:19;;;;;;;67.80;2.10;;;31.50;1.00;;;;;;5026145;28;20377;-84
2022/09/05 13:57:57;;;;;;;67.40;2.37;;;31.70;1.00;;;;;;5024135;28;20987;-84
2022/09/05 14:00:48;;;;;;;67.40;2.33;;;31.80;1.00;;;;;;5021956;28;20408;-83